Time;durP1;ratioP1;P1;durP2;ratioP2;P2;SDS_P1;SDS_P2;PMS_P1;PMS_P2;Temp;Humidity;BMP_temperature;BMP_pressure;BME280_temperature;BME280_humidity;BME280_pressure;Samples;Min_cycle;Max_cycle;Signal;HPM_P1;HPM_P2
2022/10/02 00:02:05;;;;;;;4.72;1.55;;;21.60;51.00;;;;;;5041573;28;20046;-51
2022/10/02 00:04:58;;;;;;;3.30;1.38;;;21.60;51.00;;;;;;5040418;28;20090;-48
2022/10/02 00:07:48;;;;;;;3.42;1.60;;;21.60;51.00;;;;;;5043794;28;20042;-47
2022/10/02 00:10:21;;;;;;;3.25;1.20;;;21.60;51.00;;;;;;5031616;28;20820;-46
2022/10/02 00:12:51;;;;;;;5.40;1.17;;;21.60;51.00;;;;;;5042567;28;20083;-47
2022/10/02 00:15:22;;;;;;;5.50;1.90;;;21.60;51.00;;;;;;5045180;28;20040;-47
2022/10/02 00:17:53;;;;;;;3.63;1.40;;;21.60;51.00;;;;;;5045808;28;20064;-52
2022/10/02 00:20:27;;;;;;;3.90;1.45;;;21.60;51.00;;;;;;5047679;28;20040;-48
2022/10/02 00:23:19;;;;;;;5.60;1.20;;;21.60;51.00;;;;;;5043600;28;20028;-49
2022/10/02 00:26:00;;;;;;;4.15;1.27;;;21.60;51.00;;;;;;5046538;28;20283;-46
2022/10/02 00:28:35;;;;;;;3.88;1.00;;;21.60;50.90;;;;;;5048931;28;20374;-46
2022/10/02 00:31:19;;;;;;;;;;;21.60;50.90;;;;;;5050128;28;20021;-52
2022/10/02 00:33:48;;;;;;;4.95;1.15;;;21.60;50.90;;;;;;5048936;28;19952;-48
2022/10/02 00:36:31;;;;;;;1.88;0.93;;;21.60;51.00;;;;;;5045102;28;20443;-47
2022/10/02 00:39:05;;;;;;;3.85;1.20;;;21.60;51.10;;;;;;5045337;28;20091;-46
2022/10/02 00:41:54;;;;;;;4.10;1.50;;;21.60;51.20;;;;;;5049805;28;20061;-51
2022/10/02 00:44:54;;;;;;;4.63;1.30;;;21.60;51.30;;;;;;5041923;28;20106;-50
2022/10/02 00:47:29;;;;;;;2.95;1.13;;;21.60;51.30;;;;;;5031208;28;20113;-52
2022/10/02 00:49:58;;;;;;;;;;;21.60;51.40;;;;;;5049194;28;20083;-52
2022/10/02 00:53:05;;;;;;;3.00;1.23;;;21.60;51.40;;;;;;5038171;28;19953;-48
2022/10/02 00:55:54;;;;;;;4.03;1.40;;;21.60;51.30;;;;;;5041839;28;20049;-51
2022/10/02 00:58:33;;;;;;;4.13;1.25;;;21.50;51.30;;;;;;5043201;28;20438;-48
2022/10/02 01:01:10;;;;;;;2.13;0.90;;;21.50;51.30;;;;;;5045719;28;20025;-46
2022/10/02 01:03:56;;;;;;;3.78;1.33;;;21.60;51.30;;;;;;5043410;28;20396;-47
2022/10/02 01:06:27;;;;;;;4.95;1.40;;;21.50;51.20;;;;;;5046457;28;20045;-46
2022/10/02 01:08:54;;;;;;;4.82;1.45;;;21.60;51.30;;;;;;5040135;28;20091;-49
2022/10/02 01:11:25;;;;;;;4.65;1.23;;;21.50;51.30;;;;;;5048280;28;20123;-53
2022/10/02 01:13:50;;;;;;;4.13;1.52;;;21.50;51.30;;;;;;5048251;28;20096;-47
2022/10/02 01:16:17;;;;;;;3.85;1.20;;;21.50;51.30;;;;;;5046072;28;20046;-46
2022/10/02 01:18:47;;;;;;;4.10;1.20;;;21.50;51.20;;;;;;5047616;28;20313;-49
2022/10/02 01:21:33;;;;;;;4.85;1.40;;;21.50;51.20;;;;;;5040827;28;20039;-46
2022/10/02 01:24:11;;;;;;;2.80;1.20;;;21.50;51.20;;;;;;5045748;28;20075;-47
2022/10/02 01:26:37;;;;;;;2.55;1.00;;;21.50;51.30;;;;;;5041905;28;20385;-47
2022/10/02 01:29:03;;;;;;;3.45;1.38;;;21.50;51.20;;;;;;5045242;28;20029;-49
2022/10/02 01:31:31;;;;;;;5.00;1.52;;;21.50;51.10;;;;;;5041474;28;20487;-47
2022/10/02 01:33:57;;;;;;;4.32;1.17;;;21.50;51.10;;;;;;5044600;28;20116;-49
2022/10/02 01:36:23;;;;;;;3.22;1.20;;;21.50;51.20;;;;;;5048924;28;20029;-47
2022/10/02 01:38:51;;;;;;;4.28;1.40;;;21.50;51.20;;;;;;5047572;28;20024;-52
2022/10/02 01:41:17;;;;;;;4.13;1.35;;;21.50;51.20;;;;;;5044456;28;20078;-49
2022/10/02 01:43:48;;;;;;;3.38;1.13;;;21.50;51.20;;;;;;5041456;28;20025;-46
2022/10/02 01:46:44;;;;;;;4.45;1.45;;;21.50;51.30;;;;;;5046412;28;20039;-47
2022/10/02 01:49:12;;;;;;;3.08;1.10;;;21.50;51.30;;;;;;5045469;28;20120;-50
2022/10/02 01:52:00;;;;;;;3.05;1.27;;;21.50;51.30;;;;;;5041230;28;20035;-52
2022/10/02 01:54:29;;;;;;;3.47;1.30;;;21.50;51.30;;;;;;5041320;28;21163;-52
2022/10/02 01:57:08;;;;;;;4.47;1.30;;;21.50;51.40;;;;;;5046108;28;20079;-49
2022/10/02 02:00:12;;;;;;;4.50;1.63;;;21.50;51.40;;;;;;5041847;28;20036;-50
2022/10/02 02:02:56;;;;;;;3.97;1.33;;;21.50;51.40;;;;;;5043922;28;20124;-49
2022/10/02 02:05:31;;;;;;;4.45;1.45;;;21.40;51.50;;;;;;5047498;28;20029;-48
2022/10/02 02:08:05;;;;;;;5.30;1.50;;;21.40;51.50;;;;;;5048484;28;20051;-51
2022/10/02 02:10:41;;;;;;;;;;;21.40;51.60;;;;;;5045400;28;20107;-48
2022/10/02 02:13:38;;;;;;;5.43;1.42;;;21.40;51.70;;;;;;5049153;28;19909;-51
2022/10/02 02:16:22;;;;;;;5.10;1.50;;;21.40;51.70;;;;;;5038940;28;20064;-51
2022/10/02 02:18:50;;;;;;;5.10;1.55;;;21.40;51.80;;;;;;5040076;28;20452;-48
2022/10/02 02:21:47;;;;;;;5.30;1.35;;;21.40;51.90;;;;;;5040410;28;20115;-47
2022/10/02 02:24:22;;;;;;;2.78;1.25;;;21.40;51.90;;;;;;5041041;28;20072;-47
2022/10/02 02:26:51;;;;;;;6.30;1.63;;;21.40;52.00;;;;;;5039682;28;20041;-48
2022/10/02 02:29:20;;;;;;;3.33;1.40;;;21.40;52.00;;;;;;5046689;28;20028;-50
2022/10/02 02:31:50;;;;;;;4.70;1.55;;;21.40;52.10;;;;;;5043703;28;20032;-47
2022/10/02 02:34:21;;;;;;;5.78;1.50;;;21.40;52.10;;;;;;5043193;28;20057;-49
2022/10/02 02:36:53;;;;;;;3.88;1.75;;;21.40;52.20;;;;;;5044781;28;20098;-47
2022/10/02 02:39:39;;;;;;;6.22;1.73;;;21.40;52.20;;;;;;5047574;28;20479;-52
2022/10/02 02:42:09;;;;;;;4.50;1.50;;;21.40;52.20;;;;;;5044067;28;20055;-47
2022/10/02 02:44:44;;;;;;;4.35;1.63;;;21.40;52.20;;;;;;5045723;28;20463;-50
2022/10/02 02:47:21;;;;;;;6.15;1.77;;;21.40;52.20;;;;;;5048362;28;20040;-47
2022/10/02 02:49:59;;;;;;;5.47;1.63;;;21.40;52.90;;;;;;5044703;28;20111;-48
2022/10/02 02:52:45;;;;;;;4.10;1.38;;;21.40;52.30;;;;;;5044219;28;20120;-46
2022/10/02 02:55:11;;;;;;;5.32;1.92;;;21.40;52.30;;;;;;5044243;28;20117;-49
2022/10/02 02:58:15;;;;;;;4.50;1.83;;;21.30;52.30;;;;;;5044619;28;20112;-49
2022/10/02 03:00:41;;;;;;;3.95;1.45;;;21.40;52.40;;;;;;5006784;28;20029;-49
2022/10/02 03:03:07;;;;;;;5.35;1.80;;;21.40;52.40;;;;;;5036381;28;20384;-47
2022/10/02 03:05:38;;;;;;;4.45;1.48;;;21.30;52.40;;;;;;5044764;28;20029;-48
2022/10/02 03:08:09;;;;;;;4.95;1.90;;;21.30;52.40;;;;;;5042029;28;20429;-47
2022/10/02 03:11:11;;;;;;;3.85;1.65;;;21.30;52.40;;;;;;5042123;28;20056;-47
2022/10/02 03:13:52;;;;;;;4.60;1.40;;;21.30;52.40;;;;;;5043273;28;20456;-50
2022/10/02 03:16:29;;;;;;;5.15;1.70;;;21.30;52.40;;;;;;5040036;28;20033;-46
2022/10/02 03:19:00;;;;;;;4.72;1.60;;;21.30;52.40;;;;;;5035904;28;20181;-46
2022/10/02 03:21:43;;;;;;;4.28;1.45;;;21.30;52.40;;;;;;5037826;28;20108;-46
2022/10/02 03:24:35;;;;;;;6.35;1.85;;;21.30;52.50;;;;;;5039176;28;20047;-48
2022/10/02 03:27:09;;;;;;;4.45;1.63;;;21.30;52.50;;;;;;5045219;28;20120;-47
2022/10/02 03:29:48;;;;;;;5.85;1.75;;;21.30;52.50;;;;;;5044982;28;20032;-48
2022/10/02 03:32:16;;;;;;;5.63;1.70;;;21.30;52.50;;;;;;5043493;28;20063;-46
2022/10/02 03:34:43;;;;;;;5.35;1.73;;;21.30;52.50;;;;;;5041972;28;20392;-47
2022/10/02 03:37:08;;;;;;;4.97;1.65;;;21.30;52.60;;;;;;5046134;28;20063;-47
2022/10/02 03:39:38;;;;;;;5.13;1.70;;;21.30;52.60;;;;;;5040322;28;20393;-46
2022/10/02 03:42:04;;;;;;;5.18;1.50;;;21.30;52.60;;;;;;5042389;28;20037;-48
2022/10/02 03:44:30;;;;;;;5.53;1.83;;;21.30;52.60;;;;;;5041010;28;20075;-46
2022/10/02 03:46:55;;;;;;;4.75;1.60;;;21.30;52.60;;;;;;5034442;28;20069;-48
2022/10/02 03:49:21;;;;;;;6.28;2.10;;;21.30;52.60;;;;;;5046491;28;20037;-45
2022/10/02 03:51:47;;;;;;;4.28;1.73;;;21.30;52.60;;;;;;5044601;28;20025;-46
2022/10/02 03:54:18;;;;;;;4.90;1.83;;;21.30;52.60;;;;;;5038497;28;20072;-54
2022/10/02 03:56:53;;;;;;;4.55;1.63;;;21.30;52.60;;;;;;5042727;28;20440;-48
2022/10/02 03:59:58;;;;;;;5.78;1.55;;;21.30;52.60;;;;;;5039419;28;20041;-50
2022/10/02 04:02:38;;;;;;;4.43;1.42;;;21.30;52.70;;;;;;5048634;28;20026;-52
2022/10/02 04:05:15;;;;;;;4.80;1.42;;;21.30;52.70;;;;;;5045290;28;20033;-50
2022/10/02 04:07:43;;;;;;;5.20;1.65;;;21.30;52.70;;;;;;5049490;28;20412;-46
2022/10/02 04:10:12;;;;;;;4.00;1.60;;;21.30;52.80;;;;;;5045036;28;20056;-48
2022/10/02 04:12:43;;;;;;;8.10;2.17;;;21.30;52.80;;;;;;5049909;28;20029;-47
2022/10/02 04:15:45;;;;;;;3.97;1.27;;;21.30;52.80;;;;;;5046516;28;20037;-47
2022/10/02 04:18:19;;;;;;;4.70;1.67;;;21.20;52.70;;;;;;5044851;28;20068;-49
2022/10/02 04:20:51;;;;;;;4.50;1.60;;;21.20;52.80;;;;;;5045804;28;20456;-48
2022/10/02 04:23:22;;;;;;;4.78;1.70;;;21.30;52.80;;;;;;5046830;28;20103;-47
2022/10/02 04:25:59;;;;;;;5.10;1.60;;;21.20;52.80;;;;;;5048025;28;20025;-48
2022/10/02 04:28:34;;;;;;;4.20;1.40;;;21.20;52.80;;;;;;5046563;28;20051;-47
2022/10/02 04:31:01;;;;;;;4.00;1.40;;;21.20;52.80;;;;;;5044367;28;20668;-49
2022/10/02 04:33:28;;;;;;;4.57;1.70;;;21.20;52.90;;;;;;5049586;28;20047;-47
2022/10/02 04:36:13;;;;;;;6.10;1.70;;;21.20;52.90;;;;;;5047983;28;20110;-46
2022/10/02 04:39:00;;;;;;;4.78;1.42;;;21.20;52.90;;;;;;5044388;28;20029;-47
2022/10/02 04:41:59;;;;;;;5.30;1.60;;;21.20;53.00;;;;;;5049887;28;20029;-48
2022/10/02 04:44:43;;;;;;;6.35;1.77;;;21.20;53.00;;;;;;5041014;28;20040;-46
2022/10/02 04:47:48;;;;;;;4.93;1.63;;;21.20;53.10;;;;;;5047526;28;20110;-46
2022/10/02 04:50:42;;;;;;;4.13;1.55;;;21.20;53.10;;;;;;5047716;28;20050;-48
2022/10/02 04:53:26;;;;;;;5.80;1.67;;;21.20;53.20;;;;;;5046625;28;20021;-48
2022/10/02 04:56:03;;;;;;;4.45;1.67;;;21.20;53.10;;;;;;5042554;28;20406;-48
2022/10/02 04:58:34;;;;;;;3.85;1.45;;;21.20;53.10;;;;;;5047329;28;20394;-47
2022/10/02 05:01:09;;;;;;;6.13;1.98;;;21.20;53.20;;;;;;5040451;28;20040;-52
2022/10/02 05:03:47;;;;;;;5.50;2.03;;;21.20;53.20;;;;;;5046674;28;20071;-47
2022/10/02 05:06:31;;;;;;;5.47;1.70;;;21.20;53.20;;;;;;5049162;28;20025;-48
2022/10/02 05:09:28;;;;;;;6.40;1.73;;;21.20;53.20;;;;;;5045088;28;20159;-45
2022/10/02 05:12:13;;;;;;;5.28;1.58;;;21.20;53.30;;;;;;5037430;28;20049;-46
2022/10/02 05:15:02;;;;;;;5.47;1.55;;;21.20;53.20;;;;;;5045942;28;20044;-46
2022/10/02 05:17:43;;;;;;;5.80;1.58;;;21.10;53.20;;;;;;5046930;28;20041;-48
2022/10/02 05:20:35;;;;;;;5.55;1.60;;;21.20;53.30;;;;;;5046467;28;20108;-46
2022/10/02 05:23:27;;;;;;;3.67;1.30;;;21.20;53.30;;;;;;5046455;28;20033;-49
2022/10/02 05:26:10;;;;;;;7.22;1.70;;;21.10;53.20;;;;;;5031696;28;20047;-46
2022/10/02 05:28:52;;;;;;;5.65;1.83;;;21.10;53.30;;;;;;5048233;28;20171;-47
2022/10/02 05:31:20;;;;;;;5.40;2.03;;;21.10;53.30;;;;;;5039973;28;20143;-47
2022/10/02 05:33:55;;;;;;;6.68;2.03;;;21.10;53.30;;;;;;5043028;28;20035;-48
2022/10/02 05:36:46;;;;;;;7.15;2.22;;;21.10;53.40;;;;;;5047744;28;20039;-48
2022/10/02 05:39:15;;;;;;;5.10;1.77;;;21.10;53.30;;;;;;5046240;28;20056;-47
2022/10/02 05:42:07;;;;;;;6.07;1.77;;;21.10;53.40;;;;;;5042573;28;20103;-47
2022/10/02 05:44:46;;;;;;;3.70;1.45;;;21.10;53.40;;;;;;5046035;28;20040;-51
2022/10/02 05:47:41;;;;;;;6.50;1.77;;;21.10;53.40;;;;;;5044764;28;20048;-47
2022/10/02 05:50:18;;;;;;;6.95;2.15;;;21.10;53.40;;;;;;5041407;28;20742;-47
2022/10/02 05:53:18;;;;;;;5.97;1.73;;;21.10;53.40;;;;;;5044326;28;20044;-48
2022/10/02 05:55:54;;;;;;;4.18;1.55;;;21.10;53.50;;;;;;5047109;28;20042;-48
2022/10/02 05:58:35;;;;;;;4.80;2.00;;;21.10;53.40;;;;;;5048605;28;20115;-55
2022/10/02 06:01:20;;;;;;;5.97;1.70;;;21.10;53.50;;;;;;5043298;28;20053;-51
2022/10/02 06:04:21;;;;;;;3.53;1.48;;;21.10;53.50;;;;;;5045079;28;20048;-53
2022/10/02 06:06:53;;;;;;;5.97;2.10;;;21.10;53.50;;;;;;5047318;28;20046;-52
2022/10/02 06:09:25;;;;;;;4.50;1.70;;;21.10;53.60;;;;;;5037122;28;20684;-47
2022/10/02 06:12:02;;;;;;;6.20;1.75;;;21.10;53.60;;;;;;5047545;28;20053;-51
2022/10/02 06:14:33;;;;;;;5.57;1.55;;;21.10;53.60;;;;;;5039964;28;20098;-48
2022/10/02 06:17:22;;;;;;;5.95;2.00;;;21.10;53.70;;;;;;5046092;28;20033;-47
2022/10/02 06:19:57;;;;;;;6.22;1.75;;;21.10;53.80;;;;;;5040370;28;20036;-47
2022/10/02 06:22:28;;;;;;;;;;;21.10;53.70;;;;;;5045387;28;20029;-47
2022/10/02 06:25:23;;;;;;;4.78;1.48;;;21.10;53.80;;;;;;5043893;28;20336;-46
2022/10/02 06:27:58;;;;;;;5.38;1.88;;;21.10;53.80;;;;;;5043934;28;20444;-47
2022/10/02 06:30:24;;;;;;;4.50;1.75;;;21.10;54.00;;;;;;5044524;28;20033;-48
2022/10/02 06:33:17;;;;;;;6.28;1.30;;;21.10;54.70;;;;;;5047236;28;20086;-49
2022/10/02 06:36:16;;;;;;;5.63;1.60;;;21.10;54.00;;;;;;5043431;28;20029;-51
2022/10/02 06:38:44;;;;;;;4.25;1.38;;;21.10;54.00;;;;;;5048272;28;20036;-47
2022/10/02 06:41:22;;;;;;;4.05;1.50;;;21.10;54.00;;;;;;5045110;28;20025;-49
2022/10/02 06:44:03;;;;;;;4.85;1.70;;;21.10;54.00;;;;;;5045879;28;20021;-47
2022/10/02 06:46:40;;;;;;;3.97;1.48;;;21.10;53.90;;;;;;5043827;28;20348;-47
2022/10/02 06:49:27;;;;;;;4.15;1.50;;;21.10;53.90;;;;;;5046160;28;20116;-49
2022/10/02 06:51:56;;;;;;;5.72;2.08;;;21.10;53.90;;;;;;5046084;28;20456;-49
2022/10/02 06:54:50;;;;;;;5.72;1.50;;;21.10;53.90;;;;;;5038617;28;20038;-48
2022/10/02 06:57:34;;;;;;;5.30;1.50;;;21.10;53.90;;;;;;5035255;28;20037;-47
2022/10/02 07:00:16;;;;;;;3.87;1.57;;;21.10;53.90;;;;;;5038626;28;20083;-49
2022/10/02 07:03:07;;;;;;;4.75;1.83;;;21.20;53.90;;;;;;5039915;28;20809;-49
2022/10/02 07:05:54;;;;;;;5.03;1.65;;;21.10;53.90;;;;;;5054528;28;20033;-50
2022/10/02 07:08:59;;;;;;;5.90;1.80;;;21.10;53.90;;;;;;5036213;28;20041;-48
2022/10/02 07:11:39;;;;;;;5.00;1.58;;;21.10;53.90;;;;;;5026897;28;20365;-47
2022/10/02 07:14:29;;;;;;;3.72;1.33;;;21.10;54.00;;;;;;5034998;28;20338;-49
2022/10/02 07:17:04;;;;;;;5.07;1.63;;;21.20;54.10;;;;;;5033510;28;20029;-50
2022/10/02 07:19:57;;;;;;;4.50;1.73;;;21.10;54.00;;;;;;5042779;28;20033;-51
2022/10/02 07:22:22;;;;;;;5.30;1.33;;;21.10;54.00;;;;;;5050738;28;20504;-47
2022/10/02 07:24:57;;;;;;;4.20;0.95;;;21.10;54.10;;;;;;5046666;28;20117;-49
2022/10/02 07:27:37;;;;;;;4.72;1.83;;;21.10;54.20;;;;;;5055406;28;20440;-46
2022/10/02 07:30:16;;;;;;;4.50;1.95;;;21.20;54.20;;;;;;5057603;28;20413;-48
2022/10/02 07:32:47;;;;;;;3.55;1.30;;;21.20;54.30;;;;;;5036800;28;20543;-49
2022/10/02 07:35:31;;;;;;;5.28;1.50;;;21.20;54.30;;;;;;5038770;28;20043;-52
2022/10/02 07:38:23;;;;;;;5.22;1.70;;;21.20;54.30;;;;;;5040131;28;20026;-48
2022/10/02 07:41:01;;;;;;;4.28;1.30;;;21.20;54.50;;;;;;5037320;28;20025;-47
2022/10/02 07:43:53;;;;;;;5.78;1.80;;;21.20;54.50;;;;;;5038359;28;20025;-50
2022/10/02 07:46:26;;;;;;;3.92;1.30;;;21.20;54.60;;;;;;5035053;28;20041;-47
2022/10/02 07:49:25;;;;;;;4.75;1.48;;;21.20;54.60;;;;;;5038122;28;20033;-50
2022/10/02 07:52:06;;;;;;;3.50;1.25;;;21.20;54.70;;;;;;5038405;28;20029;-49
2022/10/02 07:55:03;;;;;;;5.35;1.95;;;21.20;54.70;;;;;;5040666;28;20090;-52
2022/10/02 07:57:38;;;;;;;3.38;1.35;;;21.30;54.80;;;;;;5058052;28;20047;-49
2022/10/02 08:00:13;;;;;;;4.75;1.50;;;21.30;54.80;;;;;;5039239;28;20045;-52
2022/10/02 08:02:58;;;;;;;5.30;1.42;;;21.30;54.90;;;;;;5036681;28;20022;-52
2022/10/02 08:05:32;;;;;;;4.72;1.38;;;21.30;54.90;;;;;;5045466;28;20100;-54
2022/10/02 08:08:23;;;;;;;4.70;1.60;;;21.30;55.00;;;;;;5037653;28;20102;-52
2022/10/02 08:11:11;;;;;;;6.30;1.63;;;21.30;55.10;;;;;;5031157;28;20346;-50
2022/10/02 08:13:54;;;;;;;5.22;1.48;;;21.30;55.20;;;;;;5018339;28;20030;-49
2022/10/02 08:16:25;;;;;;;6.22;1.60;;;21.30;55.40;;;;;;5036565;28;20029;-47
2022/10/02 08:19:10;;;;;;;3.60;1.20;;;21.30;55.40;;;;;;5043042;28;20098;-50
2022/10/02 08:21:47;;;;;;;3.70;1.55;;;21.30;55.40;;;;;;5057998;28;20033;-48
2022/10/02 08:24:21;;;;;;;4.88;1.50;;;21.30;55.40;;;;;;5022026;28;20042;-48
2022/10/02 08:26:54;;;;;;;5.72;1.48;;;21.40;55.50;;;;;;5036761;28;20136;-53
2022/10/02 08:29:25;;;;;;;7.40;1.52;;;21.30;55.50;;;;;;5037444;28;20025;-49
2022/10/02 08:31:53;;;;;;;7.53;1.52;;;21.40;55.60;;;;;;5040975;28;20033;-46
2022/10/02 08:34:23;;;;;;;5.18;1.65;;;21.30;55.60;;;;;;5049782;28;20029;-47
2022/10/02 08:37:28;;;;;;;5.07;1.58;;;21.40;55.80;;;;;;5052700;28;20029;-47
2022/10/02 08:40:09;;;;;;;4.53;1.45;;;21.40;55.70;;;;;;5046229;28;20033;-50
2022/10/02 08:42:54;;;;;;;4.90;1.42;;;21.40;55.80;;;;;;5049049;28;20025;-46
2022/10/02 08:45:39;;;;;;;4.60;1.35;;;21.40;55.80;;;;;;5049683;28;20052;-49
2022/10/02 08:48:37;;;;;;;9.73;1.60;;;21.40;55.90;;;;;;5043513;28;20037;-49
2022/10/02 08:51:24;;;;;;;2.72;1.15;;;21.40;55.90;;;;;;5041936;28;20044;-50
2022/10/02 08:54:14;;;;;;;6.20;1.48;;;21.40;55.90;;;;;;5036024;28;21646;-56
2022/10/02 08:57:15;;;;;;;6.55;1.50;;;21.40;55.90;;;;;;5043588;28;20033;-51
2022/10/02 08:59:57;;;;;;;4.25;1.52;;;21.50;56.00;;;;;;5043363;28;20029;-49
2022/10/02 09:02:44;;;;;;;3.97;1.50;;;21.50;56.00;;;;;;5047588;28;20029;-47
2022/10/02 09:05:47;;;;;;;5.22;1.38;;;21.50;56.00;;;;;;5037449;28;20318;-54
2022/10/02 09:08:19;;;;;;;4.05;1.35;;;21.50;56.00;;;;;;5042841;28;20144;-50
2022/10/02 09:10:57;;;;;;;7.20;1.10;;;21.50;56.00;;;;;;5043837;28;20100;-55
2022/10/02 09:14:10;;;;;;;5.07;1.70;;;21.50;56.00;;;;;;5049011;28;20033;-49
2022/10/02 09:16:54;;;;;;;4.13;1.40;;;21.50;56.00;;;;;;5031871;28;20067;-51
2022/10/02 09:20:13;;;;;;;3.78;1.60;;;21.50;56.00;;;;;;5044781;28;20029;-51
2022/10/02 09:22:51;;;;;;;4.00;1.15;;;21.50;56.00;;;;;;5022441;28;20029;-52
2022/10/02 09:25:36;;;;;;;6.40;1.40;;;21.60;56.00;;;;;;5042911;28;20380;-51
2022/10/02 09:28:23;;;;;;;3.80;1.30;;;21.60;56.00;;;;;;5047560;28;20456;-53
2022/10/02 09:31:11;;;;;;;4.00;1.65;;;21.60;56.00;;;;;;5037564;28;20030;-50
2022/10/02 09:34:05;;;;;;;6.18;1.55;;;21.60;56.00;;;;;;5036574;28;20029;-52
2022/10/02 09:37:01;;;;;;;11.00;3.75;;;21.60;56.00;;;;;;5035182;28;20395;-55
2022/10/02 09:40:04;;;;;;;16.83;6.15;;;21.60;56.60;;;;;;5035949;28;20218;-54
2022/10/02 09:42:45;;;;;;;15.75;6.65;;;21.70;58.30;;;;;;5016364;28;20041;-55
2022/10/02 09:45:50;;;;;;;19.48;7.35;;;21.70;59.70;;;;;;5016478;28;20108;-54
2022/10/02 09:48:26;;;;;;;17.27;7.53;;;21.70;60.70;;;;;;5015857;28;20477;-53
2022/10/02 09:50:58;;;;;;;20.65;7.60;;;21.80;61.60;;;;;;5028329;28;20037;-53
2022/10/02 09:53:50;;;;;;;17.17;6.95;;;21.80;62.10;;;;;;5036688;28;20049;-52
2022/10/02 09:56:46;;;;;;;18.58;6.75;;;21.90;62.20;;;;;;5036077;28;20103;-54
2022/10/02 09:59:27;;;;;;;23.77;9.45;;;21.90;62.40;;;;;;5035428;28;20502;-56
2022/10/02 10:02:09;;;;;;;30.30;10.25;;;21.90;62.30;;;;;;5036803;28;20033;-59
2022/10/02 10:04:45;;;;;;;26.23;8.73;;;22.00;62.00;;;;;;5040782;28;20357;-57
2022/10/02 10:07:31;;;;;;;26.38;8.98;;;22.00;61.40;;;;;;5035548;28;20038;-54
2022/10/02 10:10:08;;;;;;;24.60;8.15;;;22.00;60.80;;;;;;5044302;28;20539;-57
2022/10/02 10:12:53;;;;;;;22.88;9.80;;;22.00;60.90;;;;;;5035816;28;20025;-55
2022/10/02 10:15:42;;;;;;;22.95;11.52;;;22.00;61.30;;;;;;5035564;28;20057;-58
2022/10/02 10:19:01;;;;;;;24.98;11.95;;;22.10;61.80;;;;;;5017159;28;20042;-55
2022/10/02 10:21:57;;;;;;;23.00;10.52;;;22.10;62.40;;;;;;5018074;28;20046;-56
2022/10/02 10:24:30;;;;;;;16.50;8.00;;;22.10;62.20;;;;;;5015685;28;20125;-53
2022/10/02 10:27:20;;;;;;;15.55;6.63;;;22.20;62.20;;;;;;5015720;28;20137;-56
2022/10/02 10:29:56;;;;;;;11.88;5.38;;;22.20;60.80;;;;;;5017008;28;20496;-51
2022/10/02 10:32:44;;;;;;;12.70;4.68;;;22.20;59.90;;;;;;5034924;28;20399;-57
2022/10/02 10:35:47;;;;;;;10.05;4.05;;;22.20;59.10;;;;;;5042707;28;20030;-57
2022/10/02 10:38:33;;;;;;;10.73;3.60;;;22.20;58.40;;;;;;5034937;28;20037;-55
2022/10/02 10:41:18;;;;;;;9.45;3.03;;;22.30;57.90;;;;;;5035359;28;20372;-55
2022/10/02 10:44:16;;;;;;;7.10;3.33;;;22.30;57.30;;;;;;5017637;28;20030;-55
2022/10/02 10:47:19;;;;;;;6.88;3.17;;;22.30;57.00;;;;;;5034685;28;20079;-57
2022/10/02 10:50:22;;;;;;;8.07;2.72;;;22.30;56.70;;;;;;5033344;28;20049;-54
2022/10/02 10:53:03;;;;;;;8.85;3.22;;;22.30;56.50;;;;;;5035758;28;20420;-54
2022/10/02 10:55:44;;;;;;;8.73;3.10;;;22.30;56.10;;;;;;5035115;28;20112;-57
2022/10/02 10:58:28;;;;;;;6.80;2.63;;;22.30;55.90;;;;;;5034125;28;20037;-54
2022/10/02 11:01:12;;;;;;;6.68;2.47;;;22.30;55.50;;;;;;5024492;28;20053;-54
2022/10/02 11:04:17;;;;;;;6.95;2.83;;;22.40;55.40;;;;;;5034571;28;20048;-54
2022/10/02 11:06:51;;;;;;;6.22;2.60;;;22.40;55.10;;;;;;5034747;28;20466;-52
2022/10/02 11:09:28;;;;;;;6.43;2.38;;;22.40;54.90;;;;;;5034178;28;20021;-56
2022/10/02 11:12:20;;;;;;;6.47;2.55;;;22.40;54.70;;;;;;5039529;28;20175;-53
2022/10/02 11:15:12;;;;;;;6.25;2.45;;;22.40;54.50;;;;;;5045376;28;20342;-53
2022/10/02 11:18:05;;;;;;;6.63;2.28;;;22.40;54.40;;;;;;5044041;28;20104;-56
2022/10/02 11:20:49;;;;;;;4.97;1.98;;;22.40;54.20;;;;;;5037537;28;20041;-53
2022/10/02 11:23:36;;;;;;;5.45;2.17;;;22.40;54.20;;;;;;5046249;28;20029;-50
2022/10/02 11:26:37;;;;;;;6.20;2.00;;;22.50;54.10;;;;;;5042575;28;20091;-53
2022/10/02 11:29:37;;;;;;;5.07;2.05;;;22.50;54.10;;;;;;5034139;28;20044;-53
2022/10/02 11:32:27;;;;;;;4.70;1.98;;;22.50;54.10;;;;;;5041864;28;20522;-53
2022/10/02 11:35:23;;;;;;;5.63;2.15;;;22.50;54.00;;;;;;5039927;28;20449;-55
2022/10/02 11:38:04;;;;;;;5.85;2.70;;;22.50;54.00;;;;;;5041882;28;20680;-55
2022/10/02 11:40:43;;;;;;;5.75;2.20;;;22.50;54.00;;;;;;5044955;28;20090;-50
2022/10/02 11:43:27;;;;;;;5.07;2.00;;;22.50;54.00;;;;;;5037747;28;20518;-52
2022/10/02 11:46:02;;;;;;;5.18;1.90;;;22.60;53.90;;;;;;5059294;28;20021;-51
2022/10/02 11:48:54;;;;;;;4.40;1.75;;;22.60;53.90;;;;;;5029005;28;20412;-51
2022/10/02 11:51:51;;;;;;;6.03;2.28;;;22.60;53.80;;;;;;5042607;28;20401;-52
2022/10/02 11:54:28;;;;;;;5.93;2.10;;;22.60;53.70;;;;;;5045245;28;20036;-54
2022/10/02 11:57:13;;;;;;;6.75;2.22;;;22.60;53.70;;;;;;5043399;28;20021;-52
2022/10/02 12:00:08;;;;;;;7.75;2.25;;;22.60;53.60;;;;;;5044062;28;20036;-51
2022/10/02 12:03:03;;;;;;;4.30;1.77;;;22.60;53.50;;;;;;5040417;28;20041;-55
2022/10/02 12:05:35;;;;;;;7.53;2.35;;;22.70;53.50;;;;;;5047604;28;20118;-52
2022/10/02 12:08:19;;;;;;;7.15;2.03;;;22.60;53.30;;;;;;5045149;28;20120;-53
2022/10/02 12:10:54;;;;;;;4.75;1.95;;;22.60;53.30;;;;;;5045768;28;20099;-56
2022/10/02 12:13:51;;;;;;;5.95;1.88;;;22.60;53.20;;;;;;5045873;28;20040;-55
2022/10/02 12:16:36;;;;;;;5.03;1.77;;;22.70;53.20;;;;;;5048448;28;20036;-54
2022/10/02 12:19:14;;;;;;;5.85;2.05;;;22.70;53.10;;;;;;5042291;28;20527;-56
2022/10/02 12:27:44;;;;;;;4.40;1.60;;;22.70;52.90;;;;;;5047644;28;20174;-52
2022/10/02 12:30:43;;;;;;;5.32;1.73;;;22.70;52.70;;;;;;5047430;28;20044;-54
2022/10/02 12:33:16;;;;;;;3.70;1.38;;;22.70;52.60;;;;;;5045479;28;20459;-52
2022/10/02 12:35:48;;;;;;;4.22;1.67;;;22.70;52.50;;;;;;5046703;28;20124;-56
2022/10/02 12:38:21;;;;;;;3.33;1.42;;;22.70;52.40;;;;;;5047995;28;20518;-53
2022/10/02 12:40:55;;;;;;;3.47;1.42;;;22.70;52.30;;;;;;5046011;28;20471;-51
2022/10/02 12:43:30;;;;;;;4.20;1.60;;;22.70;52.20;;;;;;5047489;28;20075;-52
2022/10/02 12:46:33;;;;;;;4.53;1.35;;;22.70;52.10;;;;;;5047815;28;20730;-54
2022/10/02 12:49:13;;;;;;;5.43;1.95;;;22.70;51.90;;;;;;5045595;28;20037;-53
2022/10/02 12:52:29;;;;;;;4.13;1.60;;;22.70;51.80;;;;;;5043072;28;20033;-55
2022/10/02 12:55:10;;;;;;;4.43;1.52;;;22.70;51.70;;;;;;5028879;28;20038;-59
2022/10/02 12:57:54;;;;;;;3.85;1.27;;;22.70;51.60;;;;;;5038626;28;20460;-55
2022/10/02 13:00:39;;;;;;;;;;;22.80;51.50;;;;;;5042346;28;20036;-57
2022/10/02 13:03:42;;;;;;;3.92;1.30;;;22.70;51.30;;;;;;5038910;28;19909;-65
2022/10/02 13:06:37;;;;;;;4.95;1.10;;;22.70;50.90;;;;;;5039829;28;20059;-56
2022/10/02 13:09:16;;;;;;;4.95;1.42;;;22.70;50.60;;;;;;5027996;28;20029;-52
2022/10/02 13:12:18;;;;;;;3.75;1.30;;;22.70;50.20;;;;;;5033983;28;20048;-54
2022/10/02 13:15:01;;;;;;;2.75;0.90;;;22.70;49.80;;;;;;5043912;28;20452;-55
2022/10/02 13:17:45;;;;;;;5.05;1.45;;;22.70;49.60;;;;;;5042551;28;20461;-55
2022/10/02 13:20:37;;;;;;;3.45;1.02;;;22.70;49.40;;;;;;5038933;28;20029;-57
2022/10/02 13:23:24;;;;;;;3.08;1.13;;;22.70;49.30;;;;;;5034274;28;20100;-53
2022/10/02 13:25:56;;;;;;;3.35;1.20;;;22.70;49.10;;;;;;5034147;28;20086;-50
2022/10/02 13:28:48;;;;;;;3.58;1.02;;;22.70;49.00;;;;;;5033696;28;20688;-60
2022/10/02 13:31:26;;;;;;;2.17;1.02;;;22.70;48.80;;;;;;5034976;28;20376;-56
2022/10/02 13:34:21;;;;;;;2.67;1.00;;;22.70;48.70;;;;;;5036544;28;20131;-55
2022/10/02 13:36:50;;;;;;;3.47;1.20;;;22.70;48.70;;;;;;5034156;28;20022;-57
2022/10/02 13:39:16;;;;;;;2.88;1.08;;;22.70;48.70;;;;;;5030007;28;20030;-57
2022/10/02 13:42:10;;;;;;;6.28;1.55;;;22.70;48.60;;;;;;5043280;28;20109;-56
2022/10/02 13:44:53;;;;;;;3.22;1.10;;;22.70;48.50;;;;;;5033021;28;20025;-55
2022/10/02 13:47:24;;;;;;;3.85;1.10;;;22.70;48.50;;;;;;5033863;28;20052;-54
2022/10/02 13:50:05;;;;;;;3.40;1.02;;;22.70;48.50;;;;;;5044124;28;20367;-54
2022/10/02 13:52:51;;;;;;;3.60;1.17;;;22.70;48.40;;;;;;5031335;28;20052;-49
2022/10/02 13:55:27;;;;;;;3.58;1.23;;;22.70;48.30;;;;;;5034990;28;20029;-53
2022/10/02 13:58:05;;;;;;;3.60;1.10;;;22.70;48.30;;;;;;5038206;28;20318;-52
2022/10/02 14:00:37;;;;;;;2.83;1.08;;;22.70;48.20;;;;;;5034537;28;20095;-51
2022/10/02 14:03:12;;;;;;;2.90;1.00;;;22.70;48.00;;;;;;5044534;28;20036;-51
2022/10/02 14:06:15;;;;;;;3.40;1.05;;;22.70;48.00;;;;;;5038102;28;20029;-50
2022/10/02 14:08:50;;;;;;;4.53;1.33;;;22.70;47.90;;;;;;5026956;28;20060;-60
2022/10/02 14:11:21;;;;;;;5.00;1.05;;;22.70;47.80;;;;;;5014918;28;20058;-61